Salem, Michigan
Current Conditions -  °F | °C
As of 7:53 AM on Saturday 22 Nov 2014 (Local Time) from KYIP Reporting Station
Freezing Rain Freezing Rain  
Wind Chill: 25°   Ceiling: 1200
Heat Index: 33°   Visibility: 6mi
Dew Point: 26°   Wind: 10mph
Humidity: 75%   Direction: 210°SSW
Pressure: 30.14"   Gusts: NA
Location:  42.41°N, 83.58°W
Report Text: KYIP 221253Z 21009KT 6SM -FZRA BKN012 OVC020 01/M03 A3014 RMK AO2 SLP213 P0000 I1001 T00061033
Loading
Personal Weather Stations






























Interactive Weather Map New forecast layout! Learn more

10-Day Weather Forecast

Advertisements
Track Severe Weather on mobile